Mira Loma, California
Current Conditions -  °F | °C
As of 7:53 AM on Monday 26 Jan 2015 (Local Time) from KRAL Reporting Station
Overcast Overcast  
Wind Chill: 60°   Ceiling: 11000
Heat Index: 60°   Visibility: 10mi
Dew Point: 35°   Wind: 8mph
Humidity: 39%   Direction: 40°NE
Pressure: 30.03"   Gusts: NA
Location:  33.99°N, 117.51°W
Report Text: KRAL 261553Z 04007KT 10SM OVC110 16/02 A3003 RMK AO2 SLP156 T01560017
Loading
Personal Weather Stations






























Interactive Weather Map New forecast layout! Learn more

10-Day Weather Forecast

Advertisements
Track Severe Weather on mobile